Terminal Aerodrome Forecast
Issued by NWS

Home | Current Version | Previous Version | Text Only | Print | Product List | Glossary On
Versions: 1 2 3 4 5 6 7 8 9 10 11 12 13 14 15
000
FTUS44 KCRP 061134
TAFALI
TAF
KALI 061134Z 0612/0712 13009KT P6SM BKN025 OVC050
     FM061600 15015G21KT P6SM VCSH BKN035 OVC060
      TEMPO 0616/0618 BKN025
     FM062100 13017G24KT P6SM VCSH SCT040 BKN070
     FM070200 14012KT P6SM OVC017
     FM071000 13007KT P6SM SCT015 BKN025=

USA.gov is the U.S. government's official web portal to all federal, state and local government web resources and services.